createdAt,value
2022-11-30T00:00:57.560Z,34.93
2022-11-30T00:03:24.999Z,31.67
2022-11-30T00:05:52.374Z,35.80
2022-11-30T00:08:19.226Z,37.10
2022-11-30T00:10:45.895Z,35.90
2022-11-30T00:13:12.569Z,33.43
2022-11-30T00:15:39.519Z,28.80
2022-11-30T00:18:06.197Z,33.53
2022-11-30T00:20:32.860Z,33.80
2022-11-30T00:22:59.543Z,32.40
2022-11-30T00:25:26.787Z,31.97
2022-11-30T00:27:53.450Z,32.00
2022-11-30T00:30:20.221Z,33.63
2022-11-30T00:32:46.842Z,33.67
2022-11-30T00:35:13.506Z,37.23
2022-11-30T00:37:40.156Z,33.13
2022-11-30T00:40:07.422Z,31.07
2022-11-30T00:42:34.360Z,37.07
2022-11-30T00:45:00.992Z,39.87
2022-11-30T00:47:27.677Z,30.37
2022-11-30T00:49:54.388Z,32.33
2022-11-30T00:52:21.033Z,26.13
2022-11-30T00:54:47.818Z,29.13
2022-11-30T00:57:14.670Z,33.63
2022-11-30T00:59:41.316Z,29.80
2022-11-30T01:02:08.573Z,30.50
2022-11-30T01:04:35.301Z,31.27
2022-11-30T01:07:01.951Z,29.70
2022-11-30T01:09:28.664Z,36.23
2022-11-30T01:11:55.370Z,27.63
2022-11-30T01:14:22.056Z,33.10
2022-11-30T01:16:53.282Z,32.03
2022-11-30T01:19:22.669Z,30.93
2022-11-30T01:21:49.305Z,29.73
2022-11-30T01:24:15.940Z,32.33
2022-11-30T01:26:42.748Z,27.87
2022-11-30T01:29:09.375Z,27.23
2022-11-30T01:31:36.856Z,26.63
2022-11-30T01:34:03.774Z,29.67
2022-11-30T01:36:30.509Z,27.47
2022-11-30T01:38:58.168Z,28.30
2022-11-30T01:41:31.007Z,32.67
2022-11-30T01:44:20.279Z,29.60
2022-11-30T01:46:59.201Z,28.60
2022-11-30T01:49:25.778Z,27.17
2022-11-30T01:52:00.870Z,28.90
2022-11-30T01:54:33.917Z,29.27
2022-11-30T01:57:08.046Z,32.07
2022-11-30T01:59:34.874Z,25.73
2022-11-30T02:02:01.684Z,29.10
2022-11-30T02:04:36.149Z,26.37
2022-11-30T02:07:05.664Z,32.50
2022-11-30T02:09:42.777Z,30.83
2022-11-30T02:12:22.611Z,26.13
2022-11-30T02:14:54.364Z,31.13
2022-11-30T02:17:35.613Z,32.90
2022-11-30T02:20:27.057Z,28.40
2022-11-30T02:23:05.854Z,33.10
2022-11-30T02:25:59.518Z,29.27
2022-11-30T02:28:50.455Z,31.30
2022-11-30T02:31:23.835Z,29.57
2022-11-30T02:33:51.907Z,22.50
2022-11-30T02:36:20.114Z,27.20
2022-11-30T02:38:47.130Z,28.23
2022-11-30T02:41:13.757Z,27.57
2022-11-30T02:43:40.612Z,34.60
2022-11-30T02:46:23.502Z,32.67
2022-11-30T02:49:06.090Z,24.23
2022-11-30T02:51:35.747Z,30.83
2022-11-30T02:54:03.099Z,22.10
2022-11-30T02:56:30.570Z,25.80
2022-11-30T02:58:57.211Z,25.87
2022-11-30T03:01:24.236Z,27.47
2022-11-30T03:03:51.028Z,30.00
2022-11-30T03:06:17.670Z,28.10
2022-11-30T03:08:44.333Z,40.63
2022-11-30T03:11:11.044Z,27.47
2022-11-30T03:13:37.708Z,30.33
2022-11-30T03:16:09.296Z,27.70
2022-11-30T03:18:36.354Z,30.43
2022-11-30T03:21:06.707Z,29.40
2022-11-30T03:23:33.789Z,28.10
2022-11-30T03:26:00.432Z,32.20
2022-11-30T03:28:27.190Z,31.43
2022-11-30T03:30:53.968Z,28.33
2022-11-30T03:33:20.774Z,38.07
2022-11-30T03:35:47.458Z,30.37
2022-11-30T03:38:14.204Z,33.97
2022-11-30T03:40:40.853Z,32.00
2022-11-30T03:43:07.509Z,30.23
2022-11-30T03:45:34.176Z,24.50
2022-11-30T03:48:00.823Z,25.87
2022-11-30T03:50:27.465Z,24.40
2022-11-30T03:52:54.099Z,29.37
2022-11-30T03:55:20.731Z,28.03
2022-11-30T03:57:47.437Z,27.63
2022-11-30T04:00:14.536Z,27.47
2022-11-30T04:02:44.693Z,29.10
2022-11-30T04:05:11.815Z,27.27
2022-11-30T04:07:38.508Z,25.30
2022-11-30T04:10:08.688Z,28.70
2022-11-30T04:12:35.579Z,33.33
2022-11-30T04:15:02.312Z,30.40
2022-11-30T04:17:28.943Z,32.30
2022-11-30T04:19:55.626Z,37.93
2022-11-30T04:22:22.282Z,31.30
2022-11-30T04:24:49.193Z,30.07
2022-11-30T04:27:16.067Z,31.07
2022-11-30T04:29:42.751Z,32.40
2022-11-30T04:32:09.421Z,34.00
2022-11-30T04:34:36.089Z,31.90
2022-11-30T04:37:02.730Z,33.23
2022-11-30T04:39:29.377Z,35.33
2022-11-30T04:41:56.542Z,38.93
2022-11-30T04:44:23.267Z,40.37
2022-11-30T04:46:49.890Z,52.83
2022-11-30T04:49:16.701Z,39.60
2022-11-30T04:51:43.556Z,41.20
2022-11-30T04:54:10.246Z,45.90
2022-11-30T04:56:36.896Z,40.93
2022-11-30T04:59:03.708Z,34.67
2022-11-30T05:01:30.545Z,43.40
2022-11-30T05:04:00.076Z,45.20
2022-11-30T05:06:27.465Z,47.93
2022-11-30T05:08:54.180Z,41.07
2022-11-30T05:11:20.853Z,44.30
2022-11-30T05:13:47.528Z,50.10
2022-11-30T05:16:14.238Z,48.00
2022-11-30T05:18:40.936Z,51.23
2022-11-30T05:21:07.615Z,54.33
2022-11-30T05:23:34.274Z,57.27
2022-11-30T05:26:04.526Z,58.27
2022-11-30T05:28:31.228Z,53.60
2022-11-30T05:31:03.825Z,54.13
2022-11-30T05:33:30.629Z,58.33
2022-11-30T05:35:57.313Z,59.67
2022-11-30T05:38:23.940Z,60.20
2022-11-30T05:40:50.624Z,54.20
2022-11-30T05:43:18.832Z,58.07
2022-11-30T05:45:45.464Z,55.23
2022-11-30T05:48:12.142Z,50.63
2022-11-30T05:50:38.852Z,55.47
2022-11-30T05:53:05.495Z,54.70
2022-11-30T05:55:33.445Z,56.83
2022-11-30T05:58:00.814Z,63.90
2022-11-30T06:00:27.502Z,50.77
2022-11-30T06:02:58.370Z,48.90
2022-11-30T06:05:28.788Z,51.63
2022-11-30T06:07:58.712Z,57.27
2022-11-30T06:10:27.210Z,69.47
2022-11-30T06:12:53.859Z,54.27
2022-11-30T06:15:20.512Z,58.43
2022-11-30T06:17:47.150Z,51.33
2022-11-30T06:20:14.253Z,56.90
2022-11-30T06:22:40.905Z,58.20
2022-11-30T06:25:07.685Z,46.70
2022-11-30T06:27:34.421Z,49.67
2022-11-30T06:30:01.554Z,46.63
2022-11-30T06:32:28.263Z,44.10
2022-11-30T06:34:54.897Z,48.03
2022-11-30T06:37:21.538Z,57.10
2022-11-30T06:40:05.935Z,56.77
2022-11-30T06:42:34.378Z,56.00
2022-11-30T06:45:01.055Z,55.30
2022-11-30T06:47:28.178Z,58.83
2022-11-30T06:49:55.112Z,58.80
2022-11-30T06:52:21.854Z,50.30
2022-11-30T06:54:48.718Z,85.40
2022-11-30T06:57:15.622Z,64.60
2022-11-30T06:59:42.465Z,55.13
2022-11-30T07:02:18.209Z,53.43
2022-11-30T07:04:46.017Z,68.37
2022-11-30T07:07:13.112Z,49.57
2022-11-30T07:09:39.971Z,56.87
2022-11-30T07:12:06.961Z,60.07
2022-11-30T07:14:33.758Z,64.47
2022-11-30T07:17:04.520Z,61.03
2022-11-30T07:19:32.788Z,67.13
2022-11-30T07:21:59.601Z,59.97
2022-11-30T07:24:44.888Z,63.13
2022-11-30T07:27:11.667Z,64.20
2022-11-30T07:29:38.296Z,59.87
2022-11-30T07:32:05.114Z,80.33
2022-11-30T07:34:31.774Z,67.73
2022-11-30T07:36:58.421Z,60.07
2022-11-30T07:39:25.088Z,67.50
2022-11-30T07:41:51.735Z,65.63
2022-11-30T07:44:18.483Z,73.43
2022-11-30T07:46:45.141Z,82.30
2022-11-30T07:49:11.852Z,69.53
2022-11-30T07:51:38.578Z,71.60
2022-11-30T07:54:05.387Z,68.93
2022-11-30T07:56:32.107Z,83.97
2022-11-30T07:59:00.909Z,60.70
2022-11-30T08:01:30.814Z,57.20
2022-11-30T08:03:57.944Z,65.73
2022-11-30T08:06:27.285Z,63.20
2022-11-30T08:08:56.450Z,73.20
2022-11-30T08:11:26.033Z,61.37
2022-11-30T08:13:53.356Z,67.30
2022-11-30T08:16:23.590Z,63.77
2022-11-30T08:18:50.857Z,59.03
2022-11-30T08:21:20.279Z,61.33
2022-11-30T08:23:49.317Z,61.20
2022-11-30T08:26:19.481Z,62.07
2022-11-30T08:28:48.267Z,59.47
2022-11-30T08:31:23.984Z,58.73
2022-11-30T08:33:55.521Z,64.07
2022-11-30T08:36:23.276Z,70.30
2022-11-30T08:38:50.232Z,64.73
2022-11-30T08:41:19.852Z,55.03
2022-11-30T08:43:46.654Z,72.33
2022-11-30T08:46:42.986Z,63.27
2022-11-30T08:54:40.107Z,67.50
2022-11-30T08:57:06.776Z,64.20
2022-11-30T08:59:33.752Z,70.57
2022-11-30T09:02:00.413Z,62.53
2022-11-30T09:04:27.097Z,64.57
2022-11-30T09:06:53.921Z,61.30
2022-11-30T09:09:20.593Z,61.30
2022-11-30T09:11:47.245Z,60.03
2022-11-30T09:14:13.890Z,68.10
2022-11-30T09:16:40.724Z,54.70
2022-11-30T09:19:07.382Z,60.07
2022-11-30T09:21:34.111Z,63.93
2022-11-30T09:24:00.794Z,56.40
2022-11-30T09:26:27.501Z,52.13
2022-11-30T09:28:54.810Z,56.20
2022-11-30T09:31:24.518Z,63.60
2022-11-30T09:33:52.177Z,49.63
2022-11-30T09:36:21.662Z,47.93
2022-11-30T09:38:48.781Z,45.43
2022-11-30T09:41:30.341Z,47.60
2022-11-30T09:44:08.910Z,40.50
2022-11-30T09:46:54.726Z,47.17
2022-11-30T09:49:31.873Z,43.17
2022-11-30T09:52:04.178Z,40.13
2022-11-30T09:54:41.950Z,42.27
2022-11-30T09:57:31.459Z,47.10
2022-11-30T10:00:05.213Z,51.97
2022-11-30T10:02:37.975Z,56.07
2022-11-30T10:05:16.812Z,56.80
2022-11-30T10:08:12.390Z,53.47
2022-11-30T10:10:44.363Z,55.87
2022-11-30T10:13:42.033Z,53.13
2022-11-30T10:16:31.087Z,62.67
2022-11-30T10:19:06.809Z,56.07
2022-11-30T10:21:52.423Z,51.97
2022-11-30T10:24:56.903Z,47.93
2022-11-30T10:27:44.912Z,56.50
2022-11-30T10:30:26.585Z,56.73
2022-11-30T10:32:55.471Z,52.60
2022-11-30T10:35:37.069Z,47.97
2022-11-30T10:38:30.089Z,44.93
2022-11-30T10:41:19.756Z,52.30
2022-11-30T10:43:54.645Z,50.73
2022-11-30T10:46:31.008Z,54.33
2022-11-30T10:49:12.896Z,52.77
2022-11-30T10:51:43.197Z,50.10
2022-11-30T10:54:20.055Z,45.23
2022-11-30T10:56:47.219Z,43.20
2022-11-30T10:59:24.249Z,48.83
2022-11-30T11:01:53.321Z,44.63
2022-11-30T11:04:25.354Z,54.57
2022-11-30T11:07:08.289Z,56.80
2022-11-30T11:09:38.560Z,52.40
2022-11-30T11:12:14.347Z,49.03
2022-11-30T11:14:41.054Z,59.90
2022-11-30T11:17:26.487Z,49.10
2022-11-30T11:19:53.173Z,51.70
2022-11-30T11:22:29.584Z,55.17
2022-11-30T11:25:15.884Z,47.27
2022-11-30T11:27:45.076Z,51.50
2022-11-30T11:30:27.410Z,45.60
2022-11-30T11:33:12.429Z,47.50
2022-11-30T11:35:43.619Z,46.83
2022-11-30T11:38:40.449Z,44.20
2022-11-30T11:41:29.227Z,44.73
2022-11-30T11:43:58.908Z,42.07
2022-11-30T11:46:25.725Z,38.20
2022-11-30T11:49:20.728Z,36.10
2022-11-30T11:51:48.041Z,34.80
2022-11-30T11:54:27.843Z,38.20
2022-11-30T11:56:56.607Z,43.80
2022-11-30T11:59:35.131Z,36.40
2022-11-30T12:02:07.950Z,37.30
2022-11-30T12:04:51.747Z,43.23
2022-11-30T12:07:41.873Z,43.80
2022-11-30T12:10:53.053Z,45.47
2022-11-30T12:13:37.151Z,48.90
2022-11-30T12:16:15.574Z,42.10
2022-11-30T12:18:45.056Z,45.63
2022-11-30T12:21:21.669Z,40.30
2022-11-30T12:23:54.536Z,39.53
2022-11-30T12:26:39.677Z,45.63
2022-11-30T12:29:27.894Z,44.30
2022-11-30T12:32:12.957Z,47.53
2022-11-30T12:35:03.986Z,37.60
2022-11-30T12:37:54.853Z,46.80
2022-11-30T12:40:33.940Z,39.67
2022-11-30T12:43:15.350Z,37.87
2022-11-30T12:45:46.212Z,35.17
2022-11-30T12:48:40.602Z,45.50
2022-11-30T12:51:07.376Z,39.83
2022-11-30T12:53:45.523Z,31.03
2022-11-30T12:56:45.866Z,38.03
2022-11-30T12:59:30.865Z,33.73
2022-11-30T13:02:34.471Z,35.73
2022-11-30T13:05:08.371Z,33.33
2022-11-30T13:07:43.709Z,34.37
2022-11-30T13:10:19.027Z,34.10
2022-11-30T13:12:50.592Z,34.40
2022-11-30T13:15:29.498Z,36.60
2022-11-30T13:17:56.782Z,40.63
2022-11-30T13:20:48.439Z,34.17
2022-11-30T13:23:49.647Z,49.27
2022-11-30T13:26:51.529Z,40.73
2022-11-30T13:29:39.862Z,31.33
2022-11-30T13:32:48.647Z,35.20
2022-11-30T13:35:28.987Z,31.80
2022-11-30T13:38:35.319Z,32.03
2022-11-30T13:41:04.716Z,33.03
2022-11-30T13:43:36.969Z,33.00
2022-11-30T13:46:20.774Z,30.57
2022-11-30T13:48:48.367Z,31.03
2022-11-30T13:51:39.305Z,30.77
2022-11-30T13:54:44.888Z,31.80
2022-11-30T13:57:30.257Z,34.07
2022-11-30T13:59:59.094Z,35.60
2022-11-30T14:02:36.466Z,37.13
2022-11-30T14:05:18.593Z,37.13
2022-11-30T14:08:00.674Z,29.87
2022-11-30T14:10:31.270Z,34.63
2022-11-30T14:13:05.298Z,32.47
2022-11-30T14:15:38.159Z,32.30
2022-11-30T14:18:09.237Z,32.73
2022-11-30T14:21:03.587Z,31.63
2022-11-30T14:23:39.715Z,27.20
2022-11-30T14:26:11.159Z,31.43
2022-11-30T14:28:46.985Z,25.53
2022-11-30T14:31:21.254Z,29.97
2022-11-30T14:33:47.875Z,29.40
2022-11-30T14:36:15.121Z,28.30
2022-11-30T14:38:43.459Z,33.00
2022-11-30T14:41:28.221Z,24.97
2022-11-30T14:43:59.775Z,29.43
2022-11-30T14:46:29.534Z,32.10
2022-11-30T14:49:25.456Z,30.43
2022-11-30T14:52:00.717Z,27.90
2022-11-30T14:54:54.074Z,25.37
2022-11-30T14:57:41.554Z,30.07
2022-11-30T15:00:17.501Z,25.13
2022-11-30T15:02:45.042Z,29.13
2022-11-30T15:05:17.565Z,28.33
2022-11-30T15:07:46.128Z,29.90
2022-11-30T15:10:18.706Z,29.43
2022-11-30T15:12:46.150Z,30.80
2022-11-30T15:15:24.440Z,37.90
2022-11-30T15:17:54.574Z,39.13
2022-11-30T15:20:39.167Z,35.10
2022-11-30T15:23:12.449Z,28.33
2022-11-30T15:25:55.401Z,32.53
2022-11-30T15:28:27.724Z,27.37
2022-11-30T15:30:58.064Z,25.60
2022-11-30T15:33:32.226Z,27.03
2022-11-30T15:38:51.984Z,33.57
2022-11-30T15:41:24.547Z,23.27
2022-11-30T15:43:55.961Z,28.57
2022-11-30T15:46:34.039Z,32.77
2022-11-30T15:49:18.239Z,30.57
2022-11-30T15:51:47.616Z,29.90
2022-11-30T15:54:15.366Z,31.77
2022-11-30T15:56:54.501Z,26.27
2022-11-30T15:59:28.873Z,21.10
2022-11-30T16:02:16.518Z,25.00
2022-11-30T16:04:58.285Z,28.47
2022-11-30T16:07:30.069Z,24.23
2022-11-30T16:10:26.638Z,24.77
2022-11-30T16:12:55.516Z,25.93
2022-11-30T16:15:30.645Z,21.27
2022-11-30T16:18:01.143Z,22.30
2022-11-30T16:20:27.849Z,27.30
2022-11-30T16:22:54.499Z,19.40
2022-11-30T16:25:24.107Z,26.40
2022-11-30T16:27:51.258Z,23.37
2022-11-30T16:30:21.668Z,27.60
2022-11-30T16:32:49.035Z,20.50
2022-11-30T16:35:30.329Z,23.10
2022-11-30T16:37:56.957Z,23.90
2022-11-30T16:40:24.146Z,22.83
2022-11-30T16:42:51.697Z,23.00
2022-11-30T16:45:24.495Z,22.27
2022-11-30T16:47:51.989Z,23.47
2022-11-30T16:50:19.755Z,18.13
2022-11-30T16:52:46.865Z,16.90
2022-11-30T16:55:19.976Z,18.70
2022-11-30T16:57:46.944Z,19.20
2022-11-30T17:00:18.217Z,13.10
2022-11-30T17:02:59.564Z,15.87
2022-11-30T17:05:27.566Z,15.90
2022-11-30T17:07:55.012Z,18.63
2022-11-30T17:10:22.176Z,18.90
2022-11-30T17:12:49.035Z,19.80
2022-11-30T17:15:20.662Z,18.97
2022-11-30T17:17:47.600Z,21.33
2022-11-30T17:20:16.159Z,19.53
2022-11-30T17:22:44.008Z,20.50
2022-11-30T17:25:16.516Z,20.57
2022-11-30T17:27:43.620Z,20.53
2022-11-30T17:30:12.065Z,20.00
2022-11-30T17:32:38.762Z,20.60
2022-11-30T17:35:05.845Z,20.93
2022-11-30T17:37:32.518Z,20.40
2022-11-30T17:39:59.475Z,20.60
2022-11-30T17:42:26.306Z,25.87
2022-11-30T17:44:53.163Z,18.87
2022-11-30T17:47:19.869Z,21.73
2022-11-30T17:49:46.520Z,22.60
2022-11-30T17:52:13.208Z,21.07
2022-11-30T17:54:39.882Z,25.10
2022-11-30T17:57:06.599Z,23.37
2022-11-30T17:59:33.397Z,24.13
2022-11-30T18:02:00.048Z,20.37
2022-11-30T18:04:26.777Z,23.83
2022-11-30T18:06:53.488Z,18.47
2022-11-30T18:09:20.258Z,26.50
2022-11-30T18:11:47.268Z,25.27
2022-11-30T18:14:13.929Z,24.10
2022-11-30T18:16:40.687Z,25.77
2022-11-30T18:19:12.022Z,27.70
2022-11-30T18:21:40.227Z,26.60
2022-11-30T18:24:07.504Z,27.90
2022-11-30T18:26:35.509Z,30.20
2022-11-30T18:29:02.879Z,33.20
2022-11-30T18:31:30.895Z,30.43
2022-11-30T18:33:59.481Z,36.00
2022-11-30T18:36:26.673Z,34.80
2022-11-30T18:38:53.486Z,36.87
2022-11-30T18:41:20.438Z,33.13
2022-11-30T18:43:47.088Z,34.90
2022-11-30T18:46:14.077Z,33.33
2022-11-30T18:48:41.331Z,34.37
2022-11-30T18:51:30.569Z,34.07
2022-11-30T18:53:59.688Z,41.00
2022-11-30T18:56:28.271Z,35.73
2022-11-30T18:59:00.994Z,36.60
2022-11-30T19:01:28.767Z,38.53
2022-11-30T19:03:58.421Z,37.17
2022-11-30T19:06:29.395Z,35.67
2022-11-30T19:08:56.973Z,37.47
2022-11-30T19:11:23.997Z,46.70
2022-11-30T19:13:55.686Z,37.90
2022-11-30T19:16:24.574Z,42.27
2022-11-30T19:18:52.309Z,39.63
2022-11-30T19:21:20.924Z,39.43
2022-11-30T19:23:48.500Z,41.23
2022-11-30T19:26:15.978Z,40.77
2022-11-30T19:28:44.054Z,29.53
2022-11-30T19:31:18.641Z,31.90
2022-11-30T19:33:48.291Z,32.07
2022-11-30T19:36:23.187Z,26.80
2022-11-30T19:38:51.548Z,34.70
2022-11-30T19:41:19.987Z,34.23
2022-11-30T19:43:54.793Z,36.00
2022-11-30T19:46:24.162Z,32.17
2022-11-30T19:48:56.775Z,32.43
2022-11-30T19:51:23.778Z,33.87
2022-11-30T19:53:55.547Z,31.10
2022-11-30T19:56:23.682Z,31.13
2022-11-30T19:58:50.671Z,30.30
2022-11-30T20:01:20.154Z,33.13
2022-11-30T20:03:46.903Z,27.97
2022-11-30T20:06:13.697Z,28.60
2022-11-30T20:08:41.026Z,34.50
2022-11-30T20:11:13.969Z,32.13
2022-11-30T20:13:40.789Z,31.20
2022-11-30T20:16:15.972Z,26.50
2022-11-30T20:18:46.390Z,29.43
2022-11-30T20:21:15.697Z,29.30
2022-11-30T20:23:43.685Z,32.23
2022-11-30T20:26:24.612Z,31.37
2022-11-30T20:28:52.661Z,28.17
2022-11-30T20:31:21.900Z,30.50
2022-11-30T20:33:51.697Z,35.13
2022-11-30T20:36:20.445Z,28.03
2022-11-30T20:38:47.730Z,31.90
2022-11-30T20:41:21.160Z,31.47
2022-11-30T20:43:48.957Z,34.63
2022-11-30T20:46:20.437Z,37.53
2022-11-30T20:48:48.205Z,32.07
2022-11-30T20:51:36.381Z,32.30
2022-11-30T20:54:06.854Z,32.50
2022-11-30T20:56:36.645Z,30.00
2022-11-30T20:59:06.929Z,32.67
2022-11-30T21:01:34.381Z,31.57
2022-11-30T21:04:01.555Z,35.30
2022-11-30T21:06:30.460Z,30.20
2022-11-30T21:08:57.934Z,34.20
2022-11-30T21:11:25.338Z,33.40
2022-11-30T21:13:52.475Z,30.93
2022-11-30T21:16:27.205Z,34.47
2022-11-30T21:18:54.550Z,34.03
2022-11-30T21:21:23.954Z,32.47
2022-11-30T21:23:51.599Z,34.63
2022-11-30T21:26:25.465Z,30.03
2022-11-30T21:28:54.575Z,33.17
2022-11-30T21:31:22.382Z,32.10
2022-11-30T21:33:53.226Z,34.27
2022-11-30T21:36:21.261Z,39.53
2022-11-30T21:38:48.048Z,34.13
2022-11-30T21:41:14.938Z,35.90
2022-11-30T21:43:42.165Z,31.90
2022-11-30T21:46:14.246Z,27.77
2022-11-30T21:48:42.769Z,38.50
2022-11-30T21:51:18.313Z,32.77
2022-11-30T21:53:48.201Z,31.17
2022-11-30T21:56:22.856Z,35.57
2022-11-30T21:58:51.398Z,35.03
2022-11-30T22:01:29.680Z,35.67
2022-11-30T22:03:58.195Z,33.60
2022-11-30T22:06:27.059Z,34.70
2022-11-30T22:08:56.972Z,33.60
2022-11-30T22:11:24.539Z,36.80
2022-11-30T22:13:53.645Z,37.90
2022-11-30T22:16:24.479Z,33.80
2022-11-30T22:18:56.526Z,30.57
2022-11-30T22:21:28.631Z,44.83
2022-11-30T22:23:58.206Z,35.03
2022-11-30T22:26:25.974Z,31.90
2022-11-30T22:28:59.031Z,29.07
2022-11-30T22:31:28.563Z,29.30
2022-11-30T22:33:56.477Z,31.83
2022-11-30T22:36:26.024Z,34.63
2022-11-30T22:38:59.759Z,31.30
2022-11-30T22:41:27.441Z,33.17
2022-11-30T22:43:55.664Z,33.63
2022-11-30T22:46:27.993Z,32.23
2022-11-30T22:48:54.800Z,29.20
2022-11-30T22:51:24.120Z,28.40
2022-11-30T22:53:51.911Z,31.80
2022-11-30T22:56:26.923Z,33.50
2022-11-30T22:58:55.398Z,30.93
2022-11-30T23:01:24.492Z,31.50
2022-11-30T23:04:01.987Z,32.27
2022-11-30T23:06:28.978Z,30.67
2022-11-30T23:08:55.675Z,35.33
2022-11-30T23:11:24.330Z,35.53
2022-11-30T23:13:51.583Z,39.40
2022-11-30T23:16:19.446Z,26.83
2022-11-30T23:18:50.748Z,30.83
2022-11-30T23:21:24.095Z,29.03
2022-11-30T23:23:50.911Z,31.27
2022-11-30T23:26:23.316Z,34.23
2022-11-30T23:28:51.945Z,30.80
2022-11-30T23:31:32.937Z,36.97
2022-11-30T23:34:04.548Z,30.90
2022-11-30T23:36:31.717Z,34.10
2022-11-30T23:39:02.038Z,34.60
2022-11-30T23:41:28.935Z,37.57
2022-11-30T23:43:55.892Z,32.23
2022-11-30T23:46:22.838Z,32.50
2022-11-30T23:48:49.652Z,35.90
2022-11-30T23:51:16.305Z,29.20
2022-11-30T23:53:43.235Z,30.10
2022-11-30T23:56:12.914Z,31.33
2022-11-30T23:58:42.273Z,33.70
